Time;durP1;ratioP1;P1;durP2;ratioP2;P2;SDS_P1;SDS_P2;PMS_P1;PMS_P2;Temp;Humidity;BMP_temperature;BMP_pressure;BME280_temperature;BME280_humidity;BME280_pressure;Samples;Min_cycle;Max_cycle;Signal;HPM_P1;HPM_P2
2022/05/05 00:02:22;;;;;;;8.02;4.63;;;;;;;;;;5044688;28;20090;-81
2022/05/05 00:04:48;;;;;;;7.47;4.45;;;;;;;;;;5051663;28;20509;-81
2022/05/05 00:07:14;;;;;;;9.05;4.68;;;;;;;;;;5045044;28;20029;-81
2022/05/05 00:09:40;;;;;;;9.95;4.45;;;;;;;;;;5050102;28;21546;-80
2022/05/05 00:14:51;;;;;;;13.02;5.90;;;;;;;;;;5047585;28;20036;-80
2022/05/05 00:17:16;;;;;;;9.23;4.60;;;;;;;;;;5049982;28;20033;-80
2022/05/05 00:19:43;;;;;;;8.45;4.97;;;;;;;;;;5051999;28;20083;-80
2022/05/05 00:22:10;;;;;;;6.00;3.65;;;;;;;;;;5048891;28;20041;-81
2022/05/05 00:24:37;;;;;;;8.75;4.88;;;;;;;;;;5049146;28;20029;-82
2022/05/05 00:27:03;;;;;;;9.13;5.10;;;;;;;;;;5049208;28;20111;-81
2022/05/05 00:29:29;;;;;;;10.07;5.35;;;;;;;;;;5047627;28;20116;-80
2022/05/05 00:31:55;;;;;;;9.93;4.70;;;;;;;;;;5046039;28;20076;-80
2022/05/05 00:34:21;;;;;;;8.88;5.00;;;;;;;;;;5046721;28;20029;-80
2022/05/05 00:36:47;;;;;;;11.25;5.43;;;;;;;;;;5052365;28;20024;-82
2022/05/05 00:39:14;;;;;;;6.63;3.92;;;;;;;;;;5047371;28;20033;-80
2022/05/05 00:41:42;;;;;;;8.35;4.47;;;;;;;;;;5045742;28;20384;-81
2022/05/05 00:44:08;;;;;;;12.57;6.03;;;;;;;;;;5047883;28;20072;-81
2022/05/05 00:46:35;;;;;;;9.18;5.10;;;;;;;;;;5051250;28;20032;-80
2022/05/05 00:49:01;;;;;;;10.93;5.53;;;;;;;;;;5046392;28;20201;-80
2022/05/05 00:51:28;;;;;;;12.38;5.80;;;;;;;;;;5051629;28;20028;-79
2022/05/05 00:53:54;;;;;;;11.43;5.63;;;;;;;;;;5051148;28;20074;-79
2022/05/05 00:56:21;;;;;;;8.38;5.35;;;;;;;;;;5048480;28;20088;-80
2022/05/05 00:58:48;;;;;;;8.52;5.07;;;12.60;99.90;;;;;;5051242;28;20032;-80
2022/05/05 01:01:18;;;;;;;8.15;4.85;;;;;;;;;;5044898;28;20107;-81
2022/05/05 01:03:45;;;;;;;9.63;5.22;;;;;;;;;;5045069;28;20021;-81
2022/05/05 01:06:12;;;;;;;11.63;6.05;;;;;;;;;;5050699;28;20044;-81
2022/05/05 01:08:38;;;;;;;9.43;5.57;;;;;;;;;;5050195;28;20037;-81
2022/05/05 01:11:04;;;;;;;11.43;6.25;;;;;;;;;;5051072;28;20086;-81
2022/05/05 01:13:31;;;;;;;9.07;5.32;;;;;;;;;;5048832;28;20028;-81
2022/05/05 01:15:58;;;;;;;9.65;6.00;;;;;;;;;;5053010;28;20028;-81
2022/05/05 01:18:24;;;;;;;11.80;5.05;;;;;;;;;;5051765;28;20076;-81
2022/05/05 01:20:52;;;;;;;9.32;5.05;;;11.50;99.90;;;;;;5043339;28;20036;-81
2022/05/05 01:23:19;;;;;;;9.48;5.43;;;;;;;;;;5054027;28;20033;-80
2022/05/05 01:28:31;;;;;;;11.35;6.47;;;;;;;;;;5055108;28;20043;-80
2022/05/05 01:30:57;;;;;;;11.02;6.35;;;;;;;;;;5049314;28;20271;-81
2022/05/05 01:33:24;;;;;;;12.13;6.20;;;;;;;;;;5050003;28;20020;-82
2022/05/05 01:35:51;;;;;;;11.95;6.30;;;;;;;;;;5051419;28;20025;-79
2022/05/05 01:38:21;;;;;;;18.90;7.13;;;;;;;;;;5051655;28;20215;-80
2022/05/05 01:40:48;;;;;;;13.60;7.35;;;;;;;;;;5046459;28;20029;-80
2022/05/05 01:43:14;;;;;;;11.80;6.28;;;;;;;;;;5047302;28;20033;-80
2022/05/05 01:45:41;;;;;;;13.18;6.57;;;;;;;;;;5050007;28;20029;-81
2022/05/05 01:48:07;;;;;;;14.48;7.18;;;12.00;99.90;;;;;;5042999;28;20059;-81
2022/05/05 01:50:33;;;;;;;14.23;7.63;;;;;;;;;;5043699;28;20021;-81
2022/05/05 01:53:00;;;;;;;15.70;7.35;;;;;;;;;;5045876;28;20017;-80
2022/05/05 01:55:26;;;;;;;17.20;7.78;;;;;;;;;;5046296;28;20055;-80
2022/05/05 01:57:52;;;;;;;14.75;7.20;;;;;;;;;;5049982;28;20080;-80
2022/05/05 02:00:18;;;;;;;12.77;6.25;;;;;;;;;;5048319;28;20028;-81
2022/05/05 02:02:45;;;;;;;10.57;6.18;;;;;;;;;;5046863;28;20033;-81
2022/05/05 02:05:11;;;;;;;11.10;5.82;;;;;;;;;;5044688;28;20080;-82
2022/05/05 02:07:38;;;;;;;13.73;7.13;;;;;;;;;;5043455;28;20037;-80
2022/05/05 02:10:04;;;;;;;16.05;7.28;;;;;;;;;;5045674;28;20080;-80
2022/05/05 02:12:31;;;;;;;13.32;6.78;;;;;;;;;;5053028;28;20044;-80
2022/05/05 02:14:57;;;;;;;15.45;8.15;;;;;;;;;;5050153;28;20021;-81
2022/05/05 02:17:23;;;;;;;15.70;7.22;;;;;;;;;;5049688;28;20032;-82
2022/05/05 02:19:49;;;;;;;14.98;7.25;;;;;;;;;;5047437;28;20036;-81
2022/05/05 02:22:15;;;;;;;16.38;7.60;;;;;;;;;;5047240;28;20496;-81
2022/05/05 02:24:41;;;;;;;16.83;8.48;;;;;;;;;;5052867;28;20023;-81
2022/05/05 02:27:08;;;;;;;16.70;8.52;;;;;;;;;;5044048;28;20028;-80
2022/05/05 02:29:34;;;;;;;15.10;7.20;;;;;;;;;;5050781;28;20651;-82
2022/05/05 02:32:00;;;;;;;16.33;8.35;;;;;;;;;;5048129;28;20967;-80
2022/05/05 02:34:26;;;;;;;19.52;9.40;;;;;;;;;;5046912;28;20183;-81
2022/05/05 02:39:37;;;;;;;20.05;8.40;;;;;;;;;;5047545;28;20116;-81
2022/05/05 02:42:03;;;;;;;17.27;8.98;;;;;;;;;;5053494;28;20091;-81
2022/05/05 02:44:29;;;;;;;19.45;10.05;;;;;;;;;;5051918;28;20029;-81
2022/05/05 02:46:55;;;;;;;14.52;8.52;;;;;;;;;;5053870;28;20036;-81
2022/05/05 02:49:21;;;;;;;19.67;9.07;;;;;;;;;;5050975;28;20539;-81
2022/05/05 02:51:47;;;;;;;15.60;9.02;;;;;;;;;;5045406;28;20028;-80
2022/05/05 02:56:57;;;;;;;17.13;9.38;;;;;;;;;;5049350;28;20079;-80
2022/05/05 02:59:23;;;;;;;21.75;10.23;;;;;;;;;;5053667;28;20029;-80
2022/05/05 03:01:49;;;;;;;20.52;9.85;;;;;;;;;;5045777;28;20033;-81
2022/05/05 03:04:15;;;;;;;20.80;10.45;;;;;;;;;;5052638;28;20247;-81
2022/05/05 03:06:41;;;;;;;28.75;11.82;;;;;;;;;;5056724;28;20060;-81
2022/05/05 03:09:07;;;;;;;20.88;10.52;;;;;;;;;;5052061;28;20033;-81
2022/05/05 03:11:33;;;;;;;21.25;9.60;;;;;;;;;;5049735;28;20043;-82
2022/05/05 03:13:59;;;;;;;23.30;11.45;;;;;;;;;;5049242;28;20068;-81
2022/05/05 03:16:25;;;;;;;22.30;9.68;;;;;;;;;;5049801;28;20958;-81
2022/05/05 03:18:51;;;;;;;18.88;10.00;;;;;;;;;;5048618;28;20750;-80
2022/05/05 03:21:17;;;;;;;21.67;10.30;;;;;;;;;;5053219;28;20039;-80
2022/05/05 03:23:43;;;;;;;23.02;11.05;;;;;;;;;;5052401;28;20017;-81
2022/05/05 03:26:09;;;;;;;17.13;9.10;;;;;;;;;;5050710;28;20033;-81
2022/05/05 03:28:35;;;;;;;22.98;10.82;;;;;;;;;;5055481;28;20025;-80
2022/05/05 03:31:00;;;;;;;19.85;10.77;;;;;;;;;;5051129;28;20033;-82
2022/05/05 03:33:26;;;;;;;20.95;9.93;;;;;;;;;;5056322;28;20072;-81
2022/05/05 03:35:53;;;;;;;22.35;10.90;;;;;;;;;;5056123;28;20593;-80
2022/05/05 03:38:19;;;;;;;20.73;10.55;;;;;;;;;;5051855;28;20029;-81
2022/05/05 03:40:45;;;;;;;20.88;10.00;;;;;;;;;;5050303;28;20147;-81
2022/05/05 03:43:11;;;;;;;21.50;9.40;;;;;;;;;;5042682;28;20434;-82
2022/05/05 03:45:37;;;;;;;25.45;11.82;;;;;;;;;;5048631;28;20025;-81
2022/05/05 03:48:03;;;;;;;17.75;10.23;;;;;;;;;;5050442;28;20052;-80
2022/05/05 03:50:29;;;;;;;21.33;11.32;;;;;;;;;;5050410;28;20088;-80
2022/05/05 03:52:55;;;;;;;25.63;11.05;;;;;;;;;;5054393;28;20036;-81
2022/05/05 03:55:21;;;;;;;17.95;9.85;;;;;;;;;;5046464;28;20028;-81
2022/05/05 03:57:48;;;;;;;15.80;9.75;;;;;;;;;;5053469;28;20113;-81
2022/05/05 04:00:14;;;;;;;24.75;11.50;;;;;;;;;;5053062;28;20072;-80
2022/05/05 04:02:40;;;;;;;20.80;9.68;;;;;;;;;;5046879;28;20056;-81
2022/05/05 04:05:07;;;;;;;29.92;12.18;;;;;;;;;;5055613;28;20025;-82
2022/05/05 04:07:33;;;;;;;24.67;10.13;;;;;;;;;;5059382;28;20031;-81
2022/05/05 04:09:59;;;;;;;20.20;9.57;;;;;;;;;;5043976;28;20060;-81
2022/05/05 04:12:25;;;;;;;19.98;10.02;;;;;;;;;;5053862;28;20493;-81
2022/05/05 04:14:51;;;;;;;24.13;11.93;;;;;;;;;;5044709;28;20048;-81
2022/05/05 04:17:17;;;;;;;23.33;11.07;;;;;;;;;;5052084;28;20033;-80
2022/05/05 04:19:43;;;;;;;26.98;11.85;;;;;;;;;;5050566;28;20088;-81
2022/05/05 04:22:09;;;;;;;23.98;10.88;;;;;;;;;;5053174;28;20097;-80
2022/05/05 04:24:34;;;;;;;18.98;9.68;;;11.70;99.90;;;;;;5047704;28;20108;-80
2022/05/05 04:27:02;;;;;;;21.75;10.45;;;;;;;;;;5049326;28;20087;-81
2022/05/05 04:29:28;;;;;;;21.83;9.43;;;;;;;;;;5053443;28;20116;-81
2022/05/05 04:31:54;;;;;;;18.88;9.82;;;;;;;;;;5053148;28;20057;-82
2022/05/05 04:34:20;;;;;;;22.45;10.70;;;;;;;;;;5050291;28;20051;-83
2022/05/05 04:36:46;;;;;;;21.85;10.85;;;;;;;;;;5043341;28;20025;-80
2022/05/05 04:39:11;;;;;;;19.65;10.43;;;12.00;99.90;;;;;;5046311;28;20092;-80
2022/05/05 04:41:37;;;;;;;20.02;9.90;;;;;;;;;;5043958;28;20044;-81
2022/05/05 04:44:03;;;;;;;21.70;9.45;;;;;;;;;;5042918;28;20029;-81
2022/05/05 04:46:29;;;;;;;18.92;8.82;;;12.30;99.90;;;;;;5041597;28;20033;-83
2022/05/05 04:48:56;;;;;;;19.65;10.50;;;;;;;;;;5042367;28;20032;-81
2022/05/05 04:51:22;;;;;;;18.80;9.85;;;;;;;;;;5041118;28;20033;-80
2022/05/05 04:53:48;;;;;;;20.65;10.13;;;;;;;;;;5042532;28;20021;-81
2022/05/05 04:56:14;;;;;;;22.13;11.40;;;;;;;;;;5047916;28;20088;-81
2022/05/05 04:58:41;;;;;;;19.50;9.35;;;;;;;;;;5041483;28;20040;-82
2022/05/05 05:01:07;;;;;;;22.92;9.02;;;;;;;;;;5035432;28;21281;-82
2022/05/05 05:03:32;;;;;;;18.67;10.00;;;;;;;;;;5044588;28;20027;-81
2022/05/05 05:05:59;;;;;;;19.42;9.32;;;;;;;;;;5042759;28;20476;-80
2022/05/05 05:08:25;;;;;;;19.70;9.98;;;;;;;;;;5045192;28;20040;-81
2022/05/05 05:10:51;;;;;;;16.48;8.60;;;;;;;;;;5049664;28;20033;-82
2022/05/05 05:13:16;;;;;;;17.80;9.20;;;;;;;;;;5051689;28;20040;-81
2022/05/05 05:15:42;;;;;;;15.93;8.80;;;;;;;;;;5055292;28;20028;-81
2022/05/05 05:18:08;;;;;;;17.55;8.63;;;;;;;;;;5051445;28;20051;-80
2022/05/05 05:20:34;;;;;;;18.67;10.18;;;;;;;;;;5042585;28;20041;-81
2022/05/05 05:23:00;;;;;;;14.18;7.68;;;;;;;;;;5037569;28;20049;-81
2022/05/05 05:25:27;;;;;;;16.50;8.25;;;;;;;;;;5034444;28;20044;-83
2022/05/05 05:27:52;;;;;;;15.50;7.93;;;;;;;;;;5046551;28;20025;-81
2022/05/05 05:30:18;;;;;;;16.05;7.97;;;;;;;;;;5052953;28;20053;-81
2022/05/05 05:32:44;;;;;;;18.20;9.07;;;;;;;;;;5048774;28;20113;-81
2022/05/05 05:35:10;;;;;;;18.73;9.27;;;;;;;;;;5053903;28;20143;-81
2022/05/05 05:37:36;;;;;;;19.90;8.63;;;;;;;;;;5054583;28;20100;-81
2022/05/05 05:40:02;;;;;;;17.60;10.40;;;;;;;;;;5050548;28;20029;-82
2022/05/05 05:42:28;;;;;;;20.00;9.57;;;;;;;;;;5043820;28;20088;-83
2022/05/05 05:44:54;;;;;;;17.33;9.43;;;;;;;;;;5051018;28;20025;-81
2022/05/05 05:47:20;;;;;;;20.33;9.88;;;;;;;;;;5051039;28;20029;-81
2022/05/05 05:49:46;;;;;;;16.80;7.90;;;;;;;;;;5052056;28;20040;-80
2022/05/05 05:52:12;;;;;;;15.23;8.20;;;;;;;;;;5052337;28;20096;-82
2022/05/05 05:54:38;;;;;;;13.25;7.28;;;;;;;;;;5040181;28;20033;-80
2022/05/05 05:57:04;;;;;;;16.33;8.05;;;;;;;;;;5053068;28;20096;-85
2022/05/05 05:59:30;;;;;;;15.82;9.65;;;;;;;;;;5045921;28;20037;-81
2022/05/05 06:05:02;;;;;;;15.65;7.82;;;;;;;;;;5009488;28;20529;-81
2022/05/05 06:07:29;;;;;;;17.65;9.40;;;;;;;;;;5014300;28;20056;-80
2022/05/05 06:09:55;;;;;;;15.82;7.88;;;;;;;;;;5031279;28;20101;-82
2022/05/05 06:12:21;;;;;;;15.07;7.35;;;;;;;;;;5050360;28;20076;-82
2022/05/05 06:14:47;;;;;;;18.67;8.25;;;;;;;;;;5049582;28;20025;-82
2022/05/05 06:17:13;;;;;;;14.70;8.82;;;;;;;;;;5051756;28;20039;-82
2022/05/05 06:19:39;;;;;;;19.40;8.77;;;;;;;;;;5046941;28;20021;-81
2022/05/05 06:22:04;;;;;;;20.08;9.15;;;;;;;;;;5045593;28;20044;-82
2022/05/05 06:24:30;;;;;;;14.88;8.57;;;;;;;;;;5045005;28;20020;-81
2022/05/05 06:26:56;;;;;;;18.30;9.38;;;;;;;;;;5057923;28;20060;-81
2022/05/05 06:29:24;;;;;;;17.02;9.02;;;;;;;;;;5052255;28;20151;-81
2022/05/05 06:31:50;;;;;;;17.38;9.45;;;;;;;;;;5048596;28;20060;-81
2022/05/05 06:34:16;;;;;;;21.85;11.27;;;;;;;;;;5053724;28;21248;-81
2022/05/05 06:36:42;;;;;;;18.83;10.63;;;;;;;;;;5055190;28;20052;-81
2022/05/05 06:39:08;;;;;;;14.02;8.15;;;;;;;;;;5064560;28;20131;-81
2022/05/05 06:41:35;;;;;;;15.10;8.73;;;;;;;;;;5056889;28;20037;-81
2022/05/05 06:44:01;;;;;;;15.32;8.55;;;;;;;;;;5053205;28;20100;-80
2022/05/05 06:46:29;;;;;;;22.00;9.70;;;;;;;;;;5050181;28;20060;-81
2022/05/05 06:48:55;;;;;;;21.77;10.55;;;;;;;;;;5054604;28;20021;-82
2022/05/05 06:51:21;;;;;;;19.00;10.07;;;;;;;;;;5054325;28;20029;-81
2022/05/05 06:53:46;;;;;;;24.77;8.93;;;;;;;;;;5056038;28;20044;-81
2022/05/05 06:56:12;;;;;;;18.85;9.25;;;;;;;;;;5057946;28;20021;-81
2022/05/05 06:58:38;;;;;;;18.67;8.75;;;;;;;;;;5055704;28;20029;-81
2022/05/05 07:05:23;;;;;;;19.70;9.88;;;;;;;;;;5053942;28;20170;-81
2022/05/05 07:06:36;;;;;;;15.98;7.97;;;;;;;;;;5055518;28;20066;-82
2022/05/05 07:11:46;;;;;;;21.63;9.60;;;;;;;;;;5052085;28;20039;-82
2022/05/05 07:14:12;;;;;;;18.33;8.82;;;;;;;;;;5045640;28;20033;-81
2022/05/05 07:16:38;;;;;;;20.70;10.63;;;;;;;;;;5045813;28;20123;-81
2022/05/05 07:19:04;;;;;;;16.98;9.30;;;;;;;;;;5056281;28;20033;-81
2022/05/05 07:21:30;;;;;;;17.67;9.73;;;;;;;;;;5053876;28;20037;-82
2022/05/05 07:23:57;;;;;;;25.67;10.35;;;;;;;;;;5055631;28;20208;-82
2022/05/05 07:26:23;;;;;;;17.20;8.98;;;;;;;;;;5046173;28;20448;-81
2022/05/05 07:28:49;;;;;;;20.80;10.40;;;;;;;;;;5057944;28;20052;-81
2022/05/05 07:31:14;;;;;;;15.25;8.75;;;;;;;;;;5053027;28;20259;-81
2022/05/05 07:33:40;;;;;;;16.98;8.95;;;;;;;;;;5056810;28;20382;-80
2022/05/05 07:36:07;;;;;;;16.73;10.35;;;;;;;;;;5054611;28;20017;-81
2022/05/05 07:38:33;;;;;;;20.50;10.73;;;;;;;;;;5051200;28;20025;-81
2022/05/05 07:40:59;;;;;;;15.57;8.93;;;;;;;;;;5049965;28;20032;-81
2022/05/05 07:43:25;;;;;;;14.73;7.50;;;;;;;;;;5059038;28;20021;-81
2022/05/05 07:45:50;;;;;;;13.95;7.40;;;;;;;;;;5049198;28;20421;-80
2022/05/05 07:48:16;;;;;;;13.40;7.15;;;;;;;;;;5056441;28;20036;-82
2022/05/05 07:50:43;;;;;;;19.90;10.85;;;;;;;;;;5056968;28;20082;-81
2022/05/05 07:53:09;;;;;;;16.13;9.05;;;18.40;99.90;;;;;;5057075;28;20036;-81
2022/05/05 07:55:35;;;;;;;17.50;8.98;;;18.40;99.90;;;;;;5056054;28;20068;-81
2022/05/05 07:58:02;;;;;;;14.10;7.38;;;;;;;;;;5051056;28;20025;-81
2022/05/05 08:00:28;;;;;;;16.23;7.90;;;;;;;;;;5050745;28;20109;-81
2022/05/05 08:02:54;;;;;;;17.73;10.20;;;;;;;;;;5051583;28;20072;-81
2022/05/05 08:05:20;;;;;;;15.55;7.80;;;;;;;;;;5058454;28;20064;-81
2022/05/05 08:07:49;;;;;;;16.92;6.78;;;;;;;;;;5053058;28;20040;-81
2022/05/05 08:10:15;;;;;;;12.35;6.65;;;;;;;;;;5054314;28;20040;-81
2022/05/05 08:12:42;;;;;;;10.85;7.47;;;;;;;;;;5044197;28;20424;-82
2022/05/05 08:15:08;;;;;;;16.50;7.53;;;;;;;;;;5046364;28;20174;-82
2022/05/05 08:17:34;;;;;;;15.40;6.75;;;;;;;;;;5054953;28;20059;-82
2022/05/05 08:20:01;;;;;;;16.63;7.63;;;;;;;;;;5050048;28;20020;-81
2022/05/05 08:22:27;;;;;;;12.15;5.53;;;;;;;;;;5050765;28;20040;-81
2022/05/05 08:30:22;;;;;;;18.38;7.25;;;;;;;;;;5057096;28;20106;-81
2022/05/05 08:32:48;;;;;;;12.32;7.05;;;;;;;;;;5052538;28;20025;-81
2022/05/05 08:35:14;;;;;;;12.32;7.18;;;;;;;;;;5048519;28;20060;-82
2022/05/05 08:37:40;;;;;;;12.32;6.95;;;;;;;;;;5054224;28;20028;-81
2022/05/05 08:40:07;;;;;;;12.45;6.57;;;;;;;;;;5057219;28;20033;-81
2022/05/05 08:42:33;;;;;;;11.25;5.75;;;;;;;;;;5043937;28;20041;-81
2022/05/05 08:44:59;;;;;;;9.82;5.88;;;;;;;;;;5052637;28;20591;-81
2022/05/05 08:47:26;;;;;;;10.45;5.43;;;;;;;;;;5049458;28;20131;-80
2022/05/05 08:49:57;;;;;;;8.07;5.13;;;;;;;;;;5055332;28;20499;-81
2022/05/05 08:52:24;;;;;;;9.85;5.75;;;;;;;;;;5054040;28;20041;-81
2022/05/05 08:54:50;;;;;;;9.88;4.78;;;;;;;;;;5053691;28;20036;-81
2022/05/05 08:57:16;;;;;;;11.60;5.45;;;;;;;;;;5046886;28;20898;-80
2022/05/05 08:59:42;;;;;;;8.90;4.78;;;;;;;;;;5057250;28;20095;-81
2022/05/05 09:02:10;;;;;;;8.95;5.20;;;;;;;;;;5049711;28;20404;-80
2022/05/05 09:04:36;;;;;;;8.55;4.75;;;;;;;;;;5046460;28;20039;-80
2022/05/05 09:07:03;;;;;;;9.93;5.78;;;23.80;99.90;;;;;;5046189;28;20061;-81
2022/05/05 09:09:36;;;;;;;6.32;4.05;;;25.20;93.80;;;;;;5048776;28;20040;-82
2022/05/05 09:12:12;;;;;;;7.15;4.03;;;;;;;;;;5052329;28;20025;-81
2022/05/05 09:14:41;;;;;;;8.77;4.40;;;;;;;;;;5049868;28;20425;-81
2022/05/05 09:17:07;;;;;;;6.10;3.97;;;;;;;;;;5051412;28;20037;-83
2022/05/05 09:19:37;;;;;;;7.65;4.10;;;;;;;;;;5052415;28;20064;-81
2022/05/05 09:22:04;;;;;;;8.90;4.43;;;;;;;;;;5055724;28;20104;-82
2022/05/05 09:24:36;;;;;;;10.02;4.47;;;;;;;;;;5055850;28;20024;-82
2022/05/05 09:27:35;;;;;;;6.85;3.85;;;;;;;;;;5053398;28;20548;-81
2022/05/05 09:30:02;;;;;;;10.32;4.30;;;;;;;;;;5012519;28;20029;-81
2022/05/05 09:32:31;;;;;;;9.82;4.47;;;;;;;;;;5052413;28;20029;-81
2022/05/05 09:35:02;;;;;;;5.03;3.22;;;;;;;;;;5054422;28;20044;-81
2022/05/05 09:37:28;;;;;;;7.07;3.67;;;;;;;;;;5054139;28;20551;-82
2022/05/05 09:39:55;;;;;;;6.68;4.07;;;;;;;;;;5047642;28;20140;-80
2022/05/05 09:42:37;;;;;;;5.72;3.47;;;;;;;;;;5056047;28;20112;-80
2022/05/05 09:45:13;;;;;;;5.65;3.65;;;;;;;;;;5051691;28;20033;-80
2022/05/05 09:47:41;;;;;;;9.27;4.18;;;;;;;;;;5052455;28;20029;-80
2022/05/05 09:50:08;;;;;;;7.25;4.35;;;;;;;;;;5057366;28;20521;-81
2022/05/05 09:58:12;;;;;;;7.45;3.92;;;;;;;;;;5052607;28;20044;-81
2022/05/05 10:00:45;;;;;;;9.23;4.50;;;;;;;;;;5050779;28;20032;-81
2022/05/05 10:05:58;;;;;;;8.32;4.10;;;22.70;94.10;;;;;;5047512;28;20048;-81
2022/05/05 10:08:30;;;;;;;5.03;3.22;;;;;;;;;;5055773;28;20028;-80
2022/05/05 10:10:56;;;;;;;7.43;4.18;;;;;;;;;;5049985;28;20265;-80
2022/05/05 10:13:23;;;;;;;8.45;4.25;;;;;;;;;;5049202;28;20496;-81
2022/05/05 10:15:50;;;;;;;8.50;3.65;;;23.30;90.10;;;;;;5047986;28;20110;-81
2022/05/05 10:18:19;;;;;;;9.13;3.65;;;;;;;;;;5053377;28;20041;-81
2022/05/05 10:20:46;;;;;;;11.73;5.38;;;;;;;;;;5047211;28;20021;-80
2022/05/05 10:23:21;;;;;;;7.40;4.55;;;;;;;;;;5062857;28;20044;-80
2022/05/05 10:25:53;;;;;;;5.65;3.35;;;;;;;;;;5051820;28;20075;-81
2022/05/05 10:28:38;;;;;;;6.90;3.93;;;;;;;;;;5053237;28;20165;-80
2022/05/05 10:31:05;;;;;;;4.85;3.30;;;;;;;;;;5054214;28;20299;-81
2022/05/05 10:33:49;;;;;;;7.30;3.45;;;;;;;;;;5057680;28;20021;-80
2022/05/05 10:36:23;;;;;;;5.85;3.50;;;;;;;;;;5058545;28;20040;-80
2022/05/05 10:38:49;;;;;;;11.90;4.18;;;;;;;;;;5054603;28;20036;-80
2022/05/05 10:41:37;;;;;;;5.32;2.97;;;;;;;;;;5056250;28;20036;-81
2022/05/05 10:44:19;;;;;;;10.70;4.35;;;;;;;;;;5058946;28;20030;-81
2022/05/05 10:46:51;;;;;;;10.35;3.33;;;;;;;;;;5053523;28;20047;-80
2022/05/05 10:52:10;;;;;;;7.32;3.40;;;;;;;;;;5057180;28;20036;-80
2022/05/05 10:54:46;;;;;;;7.80;3.88;;;;;;;;;;5059597;28;20025;-81
2022/05/05 10:57:28;;;;;;;6.90;3.50;;;;;;;;;;5052197;28;20029;-80
2022/05/05 11:00:12;;;;;;;6.53;3.70;;;;;;;;;;5053379;28;20067;-80
2022/05/05 11:02:40;;;;;;;10.23;5.20;;;;;;;;;;5051151;28;20037;-80
2022/05/05 11:05:21;;;;;;;6.45;3.80;;;;;;;;;;5054760;28;20505;-80
2022/05/05 11:07:49;;;;;;;5.85;3.38;;;;;;;;;;5056531;28;20519;-80
2022/05/05 11:10:30;;;;;;;8.50;3.70;;;;;;;;;;5055720;28;20029;-80
2022/05/05 11:12:56;;;;;;;6.47;3.95;;;21.10;98.60;;;;;;5051688;28;20037;-80
2022/05/05 11:23:57;;;;;;;5.53;3.63;;;;;;;;;;5056396;28;20039;-79
2022/05/05 11:26:23;;;;;;;4.57;3.08;;;;;;;;;;5041767;28;20143;-80
2022/05/05 11:28:49;;;;;;;;;;;;;;;;;;5052803;28;20504;-80
2022/05/05 11:31:15;;;;;;;;;;;;;;;;;;5052221;28;19913;-80
2022/05/05 11:33:41;;;;;;;;;;;;;;;;;;5044034;28;20249;-80
2022/05/05 11:36:07;;;;;;;;;;;;;;;;;;5052599;28;20522;-80
2022/05/05 11:38:33;;;;;;;;;;;;;;;;;;5058526;28;19920;-79
2022/05/05 11:40:59;;;;;;;;;;;;;;;;;;5053894;28;19909;-80
2022/05/05 11:46:10;;;;;;;;;;;;;;;;;;5047426;28;20522;-79
2022/05/05 11:48:35;;;;;;;8.48;4.82;;;18.30;99.90;;;;;;5051603;28;19920;-80
2022/05/05 11:51:06;;;;;;;8.68;5.07;;;;;;;;;;5055640;28;20051;-80
2022/05/05 11:53:31;;;;;;;11.93;5.80;;;17.30;99.90;;;;;;5054935;28;20504;-79
2022/05/05 11:55:57;;;;;;;12.30;5.53;;;;;;;;;;5051537;28;20028;-78
2022/05/05 12:03:58;;;;;;;11.05;6.22;;;;;;;;;;5052949;28;20035;-79
2022/05/05 12:06:24;;;;;;;13.77;6.97;;;;;;;;;;5045367;28;20044;-79
2022/05/05 12:08:50;;;;;;;15.75;8.70;;;;;;;;;;5043331;28;20059;-80
2022/05/05 12:11:16;;;;;;;18.48;7.88;;;15.30;99.90;;;;;;5045516;28;20033;-81
2022/05/05 12:13:42;;;;;;;16.15;7.88;;;;;;;;;;5043863;28;20025;-79
2022/05/05 12:16:10;;;;;;;14.70;7.82;;;;;;;;;;5043560;28;20033;-79
2022/05/05 12:18:49;;;;;;;14.40;6.85;;;;;;;;;;5043348;28;20044;-80
2022/05/05 12:21:22;;;;;;;13.32;7.30;;;;;;;;;;5034654;28;20110;-80
2022/05/05 12:23:59;;;;;;;13.60;6.90;;;;;;;;;;5042260;28;20078;-80
2022/05/05 12:26:32;;;;;;;12.77;6.10;;;;;;;;;;5044261;28;20048;-80
2022/05/05 12:28:58;;;;;;;9.55;5.90;;;;;;;;;;5040385;28;20028;-78
2022/05/05 12:31:25;;;;;;;10.40;5.88;;;;;;;;;;5051325;28;20029;-78
2022/05/05 12:33:51;;;;;;;13.27;5.90;;;;;;;;;;5047816;28;20134;-78
2022/05/05 12:36:18;;;;;;;11.45;6.20;;;;;;;;;;5052425;28;20243;-79
2022/05/05 12:38:44;;;;;;;16.23;7.72;;;;;;;;;;5044425;28;20044;-78
2022/05/05 12:41:10;;;;;;;18.00;7.38;;;;;;;;;;5048706;28;20037;-79
2022/05/05 12:43:37;;;;;;;14.63;6.90;;;;;;;;;;5050139;28;20032;-80
2022/05/05 12:46:03;;;;;;;16.25;7.88;;;;;;;;;;5043631;28;20052;-79
2022/05/05 12:48:29;;;;;;;15.75;7.40;;;;;;;;;;5043838;28;20575;-80
2022/05/05 12:50:55;;;;;;;14.82;8.25;;;;;;;;;;5050177;28;20025;-79
2022/05/05 13:01:39;;;;;;;12.00;6.35;;;;;;;;;;5050325;28;20059;-79
2022/05/05 13:04:08;;;;;;;15.35;8.63;;;;;;;;;;5055515;28;20024;-79
2022/05/05 13:06:35;;;;;;;13.23;7.47;;;;;;;;;;5042929;28;20520;-80
2022/05/05 13:09:01;;;;;;;;;;;;;;;;;;5045390;28;20044;-80
2022/05/05 13:11:27;;;;;;;;;;;;;;;;;;5044165;28;19923;-80
2022/05/05 13:13:53;;;;;;;;;;;;;;;;;;5051057;28;19947;-80
2022/05/05 13:16:19;;;;;;;;;;;;;;;;;;5047151;28;19908;-80
2022/05/05 13:18:45;;;;;;;;;;;;;;;;;;5034764;28;19912;-80
2022/05/05 13:21:11;;;;;;;;;;;;;;;;;;5046489;28;19913;-79
2022/05/05 13:23:37;;;;;;;;;;;;;;;;;;5054464;28;19936;-80
2022/05/05 13:26:03;;;;;;;;;;;;;;;;;;5049000;28;19920;-79
2022/05/05 13:28:29;;;;;;;;;;;;;;;;;;5050143;28;19919;-80
2022/05/05 13:30:55;;;;;;;;;;;;;;;;;;5045924;28;20266;-80
2022/05/05 13:33:20;;;;;;;;;;;;;;;;;;5052464;28;19939;-80
2022/05/05 13:35:46;;;;;;;;;;;;;;;;;;5061746;28;20000;-79
2022/05/05 13:38:12;;;;;;;;;;;;;;;;;;5053902;28;19972;-80
2022/05/05 13:40:38;;;;;;;;;;;;;;;;;;5045725;28;20811;-79
2022/05/05 13:43:03;;;;;;;;;;;17.10;99.90;;;;;;5044445;28;19917;-80
2022/05/05 13:45:29;;;;;;;;;;;;;;;;;;5048741;28;19952;-79
2022/05/05 13:47:55;;;;;;;;;;;;;;;;;;5048486;28;19938;-79
2022/05/05 13:50:21;;;;;;;;;;;;;;;;;;5044255;28;19952;-80
2022/05/05 13:52:47;;;;;;;;;;;;;;;;;;5052447;28;19920;-79
2022/05/05 13:55:13;;;;;;;;;;;;;;;;;;5049736;28;19908;-80
2022/05/05 13:57:40;;;;;;;;;;;;;;;;;;5044803;28;19959;-79
2022/05/05 14:00:06;;;;;;;;;;;;;;;;;;5048191;28;19917;-79
2022/05/05 14:02:32;;;;;;;;;;;;;;;;;;5048412;28;20000;-79
2022/05/05 14:04:57;;;;;;;;;;;17.20;99.90;;;;;;5046117;28;19919;-78
2022/05/05 14:12:53;;;;;;;;;;;;;;;;;;5046377;28;19939;-80
2022/05/05 14:15:19;;;;;;;;;;;;;;;;;;5054822;28;20541;-79
2022/05/05 14:17:45;;;;;;;;;;;;;;;;;;5049007;28;20157;-80
2022/05/05 14:20:11;;;;;;;;;;;;;;;;;;5052441;28;20012;-78
2022/05/05 14:22:37;;;;;;;;;;;;;;;;;;5048140;28;19924;-79
2022/05/05 14:25:03;;;;;;;;;;;;;;;;;;5042005;28;19944;-80
2022/05/05 14:27:29;;;;;;;;;;;;;;;;;;5043313;28;19958;-78
2022/05/05 14:29:55;;;;;;;;;;;;;;;;;;5048029;28;19986;-80
2022/05/05 14:32:21;;;;;;;;;;;;;;;;;;5040630;28;19909;-79
2022/05/05 14:34:46;;;;;;;;;;;;;;;;;;5039368;28;19959;-78
2022/05/05 14:37:12;;;;;;;;;;;;;;;;;;5043490;28;19908;-78
2022/05/05 14:39:39;;;;;;;;;;;;;;;;;;5040611;28;19913;-79
2022/05/05 14:42:05;;;;;;;;;;;;;;;;;;5036171;28;19975;-77
2022/05/05 14:44:32;;;;;;;;;;;;;;;;;;5042665;28;19971;-79
2022/05/05 14:46:58;;;;;;;;;;;;;;;;;;5039746;28;19934;-79
2022/05/05 14:49:24;;;;;;;;;;;;;;;;;;5035276;28;20361;-80
2022/05/05 14:51:49;;;;;;;;;;;;;;;;;;5024416;28;19908;-80
2022/05/05 14:54:15;;;;;;;;;;;;;;;;;;5043723;28;19913;-77
2022/05/05 14:56:41;;;;;;;;;;;;;;;;;;5041611;28;19972;-79
2022/05/05 14:59:07;;;;;;;;;;;;;;;;;;5041582;28;19944;-78
2022/05/05 15:01:33;;;;;;;;;;;;;;;;;;5047137;28;19926;-79
2022/05/05 15:03:59;;;;;;;7.38;4.00;;;;;;;;;;5047735;28;20377;-79
2022/05/05 15:06:25;;;;;;;;;;;;;;;;;;5053352;28;20036;-81
2022/05/05 15:08:51;;;;;;;;;;;;;;;;;;5052331;28;20041;-80
2022/05/05 15:11:17;;;;;;;;;;;;;;;;;;5054472;28;20545;-80
2022/05/05 15:13:43;;;;;;;;;;;;;;;;;;5052805;28;19980;-80
2022/05/05 15:16:09;;;;;;;;;;;;;;;;;;5049351;28;20348;-80
2022/05/05 15:18:34;;;;;;;;;;;;;;;;;;5041928;28;19913;-79
2022/05/05 15:21:02;;;;;;;;;;;;;;;;;;5050093;28;19979;-77
2022/05/05 15:23:27;;;;;;;;;;;;;;;;;;5039337;28;19935;-78
2022/05/05 15:25:53;;;;;;;;;;;;;;;;;;5041650;28;19920;-77
2022/05/05 15:28:19;;;;;;;;;;;;;;;;;;5038366;28;20388;-78
2022/05/05 15:30:45;;;;;;;;;;;;;;;;;;5051528;28;19944;-79
2022/05/05 15:33:11;;;;;;;;;;;;;;;;;;5052836;28;19983;-78
2022/05/05 15:35:37;;;;;;;;;;;;;;;;;;5050119;28;19923;-80
2022/05/05 15:38:03;;;;;;;;;;;;;;;;;;5028708;28;19994;-79
2022/05/05 15:40:29;;;;;;;;;;;;;;;;;;5039375;28;19916;-79
2022/05/05 15:42:55;;;;;;;;;;;;;;;;;;5039355;28;19975;-79
2022/05/05 15:45:21;;;;;;;;;;;;;;;;;;5048702;28;19944;-80
2022/05/05 15:47:47;;;;;;;;;;;;;;;;;;5043072;28;19966;-79
2022/05/05 15:50:13;;;;;;;;;;;;;;;;;;5043702;28;19917;-79
2022/05/05 15:52:39;;;;;;;;;;;;;;;;;;5050527;28;19909;-79
2022/05/05 15:55:05;;;;;;;;;;;;;;;;;;5050362;28;19992;-77